sensor_id;sensor_type;location;lat;lon;timestamp;P1;durP1;ratioP1;P2;durP2;ratioP2
54452;SDS011;40363;52.270;10.546;2024-01-30T00:01:52;8.77;;;5.43;;
54452;SDS011;40363;52.270;10.546;2024-01-30T00:04:20;10.63;;;6.15;;
54452;SDS011;40363;52.270;10.546;2024-01-30T00:06:46;8.82;;;5.18;;
54452;SDS011;40363;52.270;10.546;2024-01-30T00:09:13;12.90;;;6.15;;
54452;SDS011;40363;52.270;10.546;2024-01-30T00:11:40;10.05;;;5.63;;
54452;SDS011;40363;52.270;10.546;2024-01-30T00:14:06;9.15;;;5.68;;
54452;SDS011;40363;52.270;10.546;2024-01-30T00:16:33;10.15;;;5.85;;
54452;SDS011;40363;52.270;10.546;2024-01-30T00:18:59;15.75;;;6.57;;
54452;SDS011;40363;52.270;10.546;2024-01-30T00:21:28;9.15;;;5.80;;
54452;SDS011;40363;52.270;10.546;2024-01-30T00:23:55;10.63;;;5.47;;
54452;SDS011;40363;52.270;10.546;2024-01-30T00:26:21;7.82;;;4.85;;
54452;SDS011;40363;52.270;10.546;2024-01-30T00:28:48;10.65;;;6.43;;
54452;SDS011;40363;52.270;10.546;2024-01-30T00:31:14;12.63;;;5.72;;
54452;SDS011;40363;52.270;10.546;2024-01-30T00:33:41;7.40;;;5.13;;
54452;SDS011;40363;52.270;10.546;2024-01-30T00:36:08;9.63;;;5.22;;
54452;SDS011;40363;52.270;10.546;2024-01-30T00:38:37;10.23;;;4.63;;
54452;SDS011;40363;52.270;10.546;2024-01-30T00:41:03;10.93;;;5.45;;
54452;SDS011;40363;52.270;10.546;2024-01-30T00:43:30;8.63;;;4.97;;
54452;SDS011;40363;52.270;10.546;2024-01-30T00:45:57;10.75;;;5.35;;
54452;SDS011;40363;52.270;10.546;2024-01-30T00:48:24;8.57;;;5.68;;
54452;SDS011;40363;52.270;10.546;2024-01-30T00:50:51;10.90;;;6.10;;
54452;SDS011;40363;52.270;10.546;2024-01-30T00:53:18;9.10;;;5.10;;
54452;SDS011;40363;52.270;10.546;2024-01-30T00:55:46;14.32;;;5.57;;
54452;SDS011;40363;52.270;10.546;2024-01-30T00:58:12;7.25;;;5.20;;
54452;SDS011;40363;52.270;10.546;2024-01-30T01:00:39;8.65;;;5.47;;
54452;SDS011;40363;52.270;10.546;2024-01-30T01:03:06;8.13;;;5.28;;
54452;SDS011;40363;52.270;10.546;2024-01-30T01:05:32;10.88;;;5.72;;
54452;SDS011;40363;52.270;10.546;2024-01-30T01:07:59;13.95;;;5.97;;
54452;SDS011;40363;52.270;10.546;2024-01-30T01:10:25;11.68;;;5.50;;
54452;SDS011;40363;52.270;10.546;2024-01-30T01:12:54;9.05;;;4.93;;
54452;SDS011;40363;52.270;10.546;2024-01-30T01:15:21;8.43;;;5.15;;
54452;SDS011;40363;52.270;10.546;2024-01-30T01:17:47;10.10;;;4.90;;
54452;SDS011;40363;52.270;10.546;2024-01-30T01:20:14;10.60;;;5.25;;
54452;SDS011;40363;52.270;10.546;2024-01-30T01:22:40;7.30;;;5.50;;
54452;SDS011;40363;52.270;10.546;2024-01-30T01:25:08;10.93;;;4.95;;
54452;SDS011;40363;52.270;10.546;2024-01-30T01:27:35;8.25;;;5.30;;
54452;SDS011;40363;52.270;10.546;2024-01-30T01:30:09;10.63;;;5.53;;
54452;SDS011;40363;52.270;10.546;2024-01-30T01:32:37;9.85;;;4.82;;
54452;SDS011;40363;52.270;10.546;2024-01-30T01:35:09;9.88;;;5.25;;
54452;SDS011;40363;52.270;10.546;2024-01-30T01:37:36;8.73;;;5.40;;
54452;SDS011;40363;52.270;10.546;2024-01-30T01:40:03;7.75;;;4.55;;
54452;SDS011;40363;52.270;10.546;2024-01-30T01:42:31;8.60;;;5.47;;
54452;SDS011;40363;52.270;10.546;2024-01-30T01:44:57;7.65;;;5.30;;
54452;SDS011;40363;52.270;10.546;2024-01-30T01:47:25;11.25;;;5.20;;
54452;SDS011;40363;52.270;10.546;2024-01-30T01:49:52;9.38;;;5.25;;
54452;SDS011;40363;52.270;10.546;2024-01-30T01:52:18;9.80;;;4.82;;
54452;SDS011;40363;52.270;10.546;2024-01-30T01:54:45;9.80;;;5.57;;
54452;SDS011;40363;52.270;10.546;2024-01-30T01:57:12;8.80;;;4.88;;
54452;SDS011;40363;52.270;10.546;2024-01-30T01:59:39;8.25;;;5.32;;
54452;SDS011;40363;52.270;10.546;2024-01-30T02:02:06;11.90;;;5.65;;
54452;SDS011;40363;52.270;10.546;2024-01-30T02:04:38;10.60;;;5.75;;
54452;SDS011;40363;52.270;10.546;2024-01-30T02:07:05;7.80;;;4.75;;
54452;SDS011;40363;52.270;10.546;2024-01-30T02:09:32;7.15;;;4.70;;
54452;SDS011;40363;52.270;10.546;2024-01-30T02:11:58;9.07;;;5.13;;
54452;SDS011;40363;52.270;10.546;2024-01-30T02:14:25;10.20;;;5.95;;
54452;SDS011;40363;52.270;10.546;2024-01-30T02:16:52;10.40;;;5.57;;
54452;SDS011;40363;52.270;10.546;2024-01-30T02:19:18;14.07;;;5.50;;
54452;SDS011;40363;52.270;10.546;2024-01-30T02:21:47;6.65;;;4.57;;
54452;SDS011;40363;52.270;10.546;2024-01-30T02:24:14;9.05;;;4.85;;
54452;SDS011;40363;52.270;10.546;2024-01-30T02:26:40;8.32;;;5.13;;
54452;SDS011;40363;52.270;10.546;2024-01-30T02:29:07;9.48;;;5.55;;
54452;SDS011;40363;52.270;10.546;2024-01-30T02:31:33;9.05;;;5.18;;
54452;SDS011;40363;52.270;10.546;2024-01-30T02:34:00;13.02;;;6.10;;
54452;SDS011;40363;52.270;10.546;2024-01-30T02:36:26;10.52;;;5.88;;
54452;SDS011;40363;52.270;10.546;2024-01-30T02:38:54;9.55;;;5.15;;
54452;SDS011;40363;52.270;10.546;2024-01-30T02:41:21;9.45;;;4.88;;
54452;SDS011;40363;52.270;10.546;2024-01-30T02:43:47;12.10;;;5.05;;
54452;SDS011;40363;52.270;10.546;2024-01-30T02:46:14;9.27;;;5.60;;
54452;SDS011;40363;52.270;10.546;2024-01-30T02:48:41;10.52;;;5.22;;
54452;SDS011;40363;52.270;10.546;2024-01-30T02:51:07;12.43;;;6.00;;
54452;SDS011;40363;52.270;10.546;2024-01-30T02:53:34;9.63;;;5.10;;
54452;SDS011;40363;52.270;10.546;2024-01-30T02:56:03;9.05;;;5.00;;
54452;SDS011;40363;52.270;10.546;2024-01-30T02:58:30;8.98;;;4.97;;
54452;SDS011;40363;52.270;10.546;2024-01-30T03:00:57;9.13;;;4.95;;
54452;SDS011;40363;52.270;10.546;2024-01-30T03:03:23;13.70;;;6.25;;
54452;SDS011;40363;52.270;10.546;2024-01-30T03:05:50;7.78;;;5.45;;
54452;SDS011;40363;52.270;10.546;2024-01-30T03:08:16;9.27;;;4.78;;
54452;SDS011;40363;52.270;10.546;2024-01-30T03:10:42;6.82;;;4.43;;
54452;SDS011;40363;52.270;10.546;2024-01-30T03:13:10;8.35;;;5.20;;
54452;SDS011;40363;52.270;10.546;2024-01-30T03:15:37;9.48;;;5.00;;
54452;SDS011;40363;52.270;10.546;2024-01-30T03:18:04;8.77;;;4.80;;
54452;SDS011;40363;52.270;10.546;2024-01-30T03:20:31;7.28;;;4.93;;
54452;SDS011;40363;52.270;10.546;2024-01-30T03:22:59;9.57;;;4.82;;
54452;SDS011;40363;52.270;10.546;2024-01-30T03:25:26;11.00;;;6.30;;
54452;SDS011;40363;52.270;10.546;2024-01-30T03:27:52;8.00;;;5.50;;
54452;SDS011;40363;52.270;10.546;2024-01-30T03:30:20;11.57;;;5.85;;
54452;SDS011;40363;52.270;10.546;2024-01-30T03:32:47;12.75;;;5.65;;
54452;SDS011;40363;52.270;10.546;2024-01-30T03:35:14;8.15;;;5.10;;
54452;SDS011;40363;52.270;10.546;2024-01-30T03:37:41;12.60;;;5.88;;
54452;SDS011;40363;52.270;10.546;2024-01-30T03:40:13;8.63;;;6.00;;
54452;SDS011;40363;52.270;10.546;2024-01-30T03:42:40;11.07;;;5.55;;
54452;SDS011;40363;52.270;10.546;2024-01-30T03:45:07;10.32;;;5.90;;
54452;SDS011;40363;52.270;10.546;2024-01-30T03:50:57;8.73;;;5.57;;
54452;SDS011;40363;52.270;10.546;2024-01-30T03:53:27;11.95;;;6.20;;
54452;SDS011;40363;52.270;10.546;2024-01-30T03:55:53;7.60;;;4.60;;
54452;SDS011;40363;52.270;10.546;2024-01-30T03:58:29;9.68;;;5.53;;
54452;SDS011;40363;52.270;10.546;2024-01-30T04:01:12;10.20;;;5.90;;
54452;SDS011;40363;52.270;10.546;2024-01-30T04:03:46;12.00;;;6.13;;
54452;SDS011;40363;52.270;10.546;2024-01-30T04:06:19;11.02;;;5.57;;
54452;SDS011;40363;52.270;10.546;2024-01-30T04:08:47;8.15;;;5.28;;
54452;SDS011;40363;52.270;10.546;2024-01-30T04:11:14;9.30;;;5.57;;
54452;SDS011;40363;52.270;10.546;2024-01-30T04:13:44;11.52;;;5.70;;
54452;SDS011;40363;52.270;10.546;2024-01-30T04:16:19;12.32;;;6.10;;
54452;SDS011;40363;52.270;10.546;2024-01-30T04:18:47;7.78;;;5.13;;
54452;SDS011;40363;52.270;10.546;2024-01-30T04:21:14;10.80;;;5.40;;
54452;SDS011;40363;52.270;10.546;2024-01-30T04:23:42;10.18;;;5.75;;
54452;SDS011;40363;52.270;10.546;2024-01-30T04:26:11;9.90;;;5.60;;
54452;SDS011;40363;52.270;10.546;2024-01-30T04:28:37;9.20;;;5.68;;
54452;SDS011;40363;52.270;10.546;2024-01-30T04:31:04;10.52;;;6.18;;
54452;SDS011;40363;52.270;10.546;2024-01-30T04:33:31;10.23;;;5.35;;
54452;SDS011;40363;52.270;10.546;2024-01-30T04:35:58;10.05;;;5.78;;
54452;SDS011;40363;52.270;10.546;2024-01-30T04:38:24;8.20;;;4.85;;
54452;SDS011;40363;52.270;10.546;2024-01-30T04:40:55;10.45;;;5.35;;
54452;SDS011;40363;52.270;10.546;2024-01-30T04:43:22;9.25;;;5.00;;
54452;SDS011;40363;52.270;10.546;2024-01-30T04:45:49;15.35;;;6.30;;
54452;SDS011;40363;52.270;10.546;2024-01-30T04:48:16;8.55;;;5.47;;
54452;SDS011;40363;52.270;10.546;2024-01-30T04:50:43;9.93;;;5.70;;
54452;SDS011;40363;52.270;10.546;2024-01-30T04:53:15;9.45;;;5.70;;
54452;SDS011;40363;52.270;10.546;2024-01-30T04:55:41;10.88;;;6.60;;
54452;SDS011;40363;52.270;10.546;2024-01-30T04:58:10;13.65;;;5.00;;
54452;SDS011;40363;52.270;10.546;2024-01-30T05:00:39;12.27;;;6.20;;
54452;SDS011;40363;52.270;10.546;2024-01-30T05:03:18;11.10;;;6.22;;
54452;SDS011;40363;52.270;10.546;2024-01-30T05:05:47;8.68;;;4.68;;
54452;SDS011;40363;52.270;10.546;2024-01-30T05:08:14;11.88;;;5.82;;
54452;SDS011;40363;52.270;10.546;2024-01-30T05:10:51;10.10;;;5.30;;
54452;SDS011;40363;52.270;10.546;2024-01-30T05:13:21;10.63;;;6.07;;
54452;SDS011;40363;52.270;10.546;2024-01-30T05:15:50;7.47;;;5.00;;
54452;SDS011;40363;52.270;10.546;2024-01-30T05:18:17;9.80;;;5.93;;
54452;SDS011;40363;52.270;10.546;2024-01-30T05:20:45;12.57;;;5.13;;
54452;SDS011;40363;52.270;10.546;2024-01-30T05:23:24;10.98;;;5.07;;
54452;SDS011;40363;52.270;10.546;2024-01-30T05:25:51;8.98;;;5.78;;
54452;SDS011;40363;52.270;10.546;2024-01-30T05:28:33;9.02;;;5.15;;
54452;SDS011;40363;52.270;10.546;2024-01-30T05:31:14;9.30;;;5.90;;
54452;SDS011;40363;52.270;10.546;2024-01-30T05:34:05;8.57;;;5.68;;
54452;SDS011;40363;52.270;10.546;2024-01-30T05:36:43;9.43;;;5.95;;
54452;SDS011;40363;52.270;10.546;2024-01-30T05:39:34;11.60;;;5.40;;
54452;SDS011;40363;52.270;10.546;2024-01-30T05:42:06;9.80;;;4.97;;
54452;SDS011;40363;52.270;10.546;2024-01-30T05:51:27;9.88;;;5.80;;
54452;SDS011;40363;52.270;10.546;2024-01-30T06:00:17;10.60;;;5.18;;
54452;SDS011;40363;52.270;10.546;2024-01-30T06:03:05;12.05;;;7.22;;
54452;SDS011;40363;52.270;10.546;2024-01-30T06:05:56;11.15;;;5.63;;
54452;SDS011;40363;52.270;10.546;2024-01-30T06:08:39;12.98;;;6.75;;
54452;SDS011;40363;52.270;10.546;2024-01-30T06:11:11;12.75;;;6.13;;
54452;SDS011;40363;52.270;10.546;2024-01-30T06:13:45;11.57;;;5.43;;
54452;SDS011;40363;52.270;10.546;2024-01-30T06:23:42;12.75;;;6.03;;
54452;SDS011;40363;52.270;10.546;2024-01-30T06:26:37;10.85;;;6.30;;
54452;SDS011;40363;52.270;10.546;2024-01-30T06:29:24;8.07;;;5.57;;
54452;SDS011;40363;52.270;10.546;2024-01-30T06:32:34;12.15;;;5.43;;
54452;SDS011;40363;52.270;10.546;2024-01-30T06:35:26;8.90;;;5.85;;
54452;SDS011;40363;52.270;10.546;2024-01-30T06:38:05;8.73;;;5.38;;
54452;SDS011;40363;52.270;10.546;2024-01-30T06:40:51;13.70;;;5.75;;
54452;SDS011;40363;52.270;10.546;2024-01-30T06:49:46;16.20;;;7.88;;
54452;SDS011;40363;52.270;10.546;2024-01-30T06:52:44;15.43;;;6.70;;
54452;SDS011;40363;52.270;10.546;2024-01-30T06:56:18;10.32;;;7.00;;
54452;SDS011;40363;52.270;10.546;2024-01-30T06:58:52;12.05;;;6.03;;
54452;SDS011;40363;52.270;10.546;2024-01-30T07:01:19;11.07;;;6.43;;
54452;SDS011;40363;52.270;10.546;2024-01-30T07:03:47;13.55;;;6.47;;
54452;SDS011;40363;52.270;10.546;2024-01-30T07:06:14;11.43;;;6.53;;
54452;SDS011;40363;52.270;10.546;2024-01-30T07:08:40;9.93;;;6.40;;
54452;SDS011;40363;52.270;10.546;2024-01-30T07:11:07;10.35;;;6.32;;
54452;SDS011;40363;52.270;10.546;2024-01-30T07:13:34;9.65;;;6.10;;
54452;SDS011;40363;52.270;10.546;2024-01-30T07:16:01;11.18;;;5.95;;
54452;SDS011;40363;52.270;10.546;2024-01-30T07:18:28;12.77;;;6.57;;
54452;SDS011;40363;52.270;10.546;2024-01-30T07:20:56;12.13;;;5.93;;
54452;SDS011;40363;52.270;10.546;2024-01-30T07:23:22;10.40;;;6.05;;
54452;SDS011;40363;52.270;10.546;2024-01-30T07:25:49;10.95;;;5.97;;
54452;SDS011;40363;52.270;10.546;2024-01-30T07:28:18;13.98;;;7.72;;
54452;SDS011;40363;52.270;10.546;2024-01-30T07:30:45;11.00;;;5.38;;
54452;SDS011;40363;52.270;10.546;2024-01-30T07:33:13;11.43;;;6.47;;
54452;SDS011;40363;52.270;10.546;2024-01-30T07:35:40;12.27;;;7.10;;
54452;SDS011;40363;52.270;10.546;2024-01-30T07:38:08;10.82;;;6.03;;
54452;SDS011;40363;52.270;10.546;2024-01-30T07:40:34;10.35;;;7.40;;
54452;SDS011;40363;52.270;10.546;2024-01-30T07:43:01;12.38;;;7.20;;
54452;SDS011;40363;52.270;10.546;2024-01-30T07:45:28;12.02;;;6.18;;
54452;SDS011;40363;52.270;10.546;2024-01-30T07:47:57;13.75;;;6.60;;
54452;SDS011;40363;52.270;10.546;2024-01-30T07:50:24;13.73;;;6.25;;
54452;SDS011;40363;52.270;10.546;2024-01-30T07:52:51;9.45;;;5.80;;
54452;SDS011;40363;52.270;10.546;2024-01-30T07:55:21;9.27;;;5.90;;
54452;SDS011;40363;52.270;10.546;2024-01-30T07:57:49;12.15;;;5.90;;
54452;SDS011;40363;52.270;10.546;2024-01-30T08:00:18;9.65;;;5.93;;
54452;SDS011;40363;52.270;10.546;2024-01-30T08:02:46;9.60;;;5.88;;
54452;SDS011;40363;52.270;10.546;2024-01-30T08:05:13;9.93;;;6.10;;
54452;SDS011;40363;52.270;10.546;2024-01-30T08:07:40;10.60;;;6.30;;
54452;SDS011;40363;52.270;10.546;2024-01-30T08:10:07;12.88;;;5.97;;
54452;SDS011;40363;52.270;10.546;2024-01-30T08:12:36;14.85;;;6.68;;
54452;SDS011;40363;52.270;10.546;2024-01-30T08:15:04;10.55;;;6.30;;
54452;SDS011;40363;52.270;10.546;2024-01-30T08:17:31;10.82;;;6.78;;
54452;SDS011;40363;52.270;10.546;2024-01-30T08:19:58;11.57;;;6.57;;
54452;SDS011;40363;52.270;10.546;2024-01-30T08:22:24;12.18;;;6.25;;
54452;SDS011;40363;52.270;10.546;2024-01-30T08:24:51;12.80;;;6.88;;
54452;SDS011;40363;52.270;10.546;2024-01-30T08:27:18;9.93;;;6.75;;
54452;SDS011;40363;52.270;10.546;2024-01-30T08:29:46;9.07;;;6.07;;
54452;SDS011;40363;52.270;10.546;2024-01-30T08:32:12;10.02;;;5.30;;
54452;SDS011;40363;52.270;10.546;2024-01-30T08:34:39;10.85;;;6.28;;
54452;SDS011;40363;52.270;10.546;2024-01-30T08:37:06;11.98;;;6.05;;
54452;SDS011;40363;52.270;10.546;2024-01-30T08:39:32;10.18;;;5.95;;
54452;SDS011;40363;52.270;10.546;2024-01-30T08:41:59;8.60;;;5.22;;
54452;SDS011;40363;52.270;10.546;2024-01-30T08:44:26;9.80;;;5.25;;
54452;SDS011;40363;52.270;10.546;2024-01-30T08:46:54;9.57;;;5.50;;
54452;SDS011;40363;52.270;10.546;2024-01-30T08:49:21;12.10;;;5.30;;
54452;SDS011;40363;52.270;10.546;2024-01-30T08:51:48;8.68;;;5.43;;
54452;SDS011;40363;52.270;10.546;2024-01-30T08:54:15;10.98;;;5.97;;
54452;SDS011;40363;52.270;10.546;2024-01-30T08:56:42;9.05;;;5.63;;
54452;SDS011;40363;52.270;10.546;2024-01-30T08:59:09;9.73;;;5.97;;
54452;SDS011;40363;52.270;10.546;2024-01-30T09:01:36;10.80;;;6.32;;
54452;SDS011;40363;52.270;10.546;2024-01-30T09:04:04;10.00;;;6.03;;
54452;SDS011;40363;52.270;10.546;2024-01-30T09:06:31;8.35;;;5.38;;
54452;SDS011;40363;52.270;10.546;2024-01-30T09:08:57;8.70;;;6.07;;
54452;SDS011;40363;52.270;10.546;2024-01-30T09:11:24;11.07;;;5.55;;
54452;SDS011;40363;52.270;10.546;2024-01-30T09:13:50;7.47;;;5.05;;
54452;SDS011;40363;52.270;10.546;2024-01-30T09:16:17;9.43;;;6.47;;
54452;SDS011;40363;52.270;10.546;2024-01-30T09:18:44;8.45;;;5.78;;
54452;SDS011;40363;52.270;10.546;2024-01-30T09:21:12;9.32;;;5.75;;
54452;SDS011;40363;52.270;10.546;2024-01-30T09:23:38;13.57;;;6.20;;
54452;SDS011;40363;52.270;10.546;2024-01-30T09:26:05;9.75;;;5.13;;
54452;SDS011;40363;52.270;10.546;2024-01-30T09:28:31;9.95;;;5.30;;
54452;SDS011;40363;52.270;10.546;2024-01-30T09:30:58;13.02;;;6.15;;
54452;SDS011;40363;52.270;10.546;2024-01-30T09:33:25;15.82;;;6.55;;
54452;SDS011;40363;52.270;10.546;2024-01-30T09:35:51;13.52;;;6.18;;
54452;SDS011;40363;52.270;10.546;2024-01-30T09:38:19;11.82;;;5.80;;
54452;SDS011;40363;52.270;10.546;2024-01-30T09:40:48;7.88;;;5.63;;
54452;SDS011;40363;52.270;10.546;2024-01-30T09:43:20;9.48;;;5.47;;
54452;SDS011;40363;52.270;10.546;2024-01-30T09:45:49;8.23;;;5.35;;
54452;SDS011;40363;52.270;10.546;2024-01-30T09:48:16;10.57;;;5.63;;
54452;SDS011;40363;52.270;10.546;2024-01-30T09:50:43;9.73;;;4.88;;
54452;SDS011;40363;52.270;10.546;2024-01-30T09:53:10;10.40;;;5.95;;
54452;SDS011;40363;52.270;10.546;2024-01-30T09:55:42;10.35;;;4.90;;
54452;SDS011;40363;52.270;10.546;2024-01-30T09:58:09;10.00;;;5.60;;
54452;SDS011;40363;52.270;10.546;2024-01-30T10:00:36;9.95;;;5.50;;
54452;SDS011;40363;52.270;10.546;2024-01-30T10:03:03;7.65;;;5.55;;
54452;SDS011;40363;52.270;10.546;2024-01-30T10:05:30;10.00;;;5.57;;
54452;SDS011;40363;52.270;10.546;2024-01-30T10:07:59;9.68;;;5.20;;
54452;SDS011;40363;52.270;10.546;2024-01-30T10:10:25;11.15;;;5.90;;
54452;SDS011;40363;52.270;10.546;2024-01-30T10:12:53;11.15;;;5.78;;
54452;SDS011;40363;52.270;10.546;2024-01-30T10:15:20;11.30;;;5.72;;
54452;SDS011;40363;52.270;10.546;2024-01-30T10:17:47;8.80;;;4.70;;
54452;SDS011;40363;52.270;10.546;2024-01-30T10:20:13;9.45;;;5.22;;
54452;SDS011;40363;52.270;10.546;2024-01-30T10:22:40;12.10;;;5.10;;
54452;SDS011;40363;52.270;10.546;2024-01-30T10:25:07;11.73;;;5.90;;
54452;SDS011;40363;52.270;10.546;2024-01-30T10:27:35;10.02;;;4.43;;
54452;SDS011;40363;52.270;10.546;2024-01-30T10:30:04;9.07;;;5.03;;
54452;SDS011;40363;52.270;10.546;2024-01-30T10:32:32;8.60;;;5.25;;
54452;SDS011;40363;52.270;10.546;2024-01-30T10:34:59;8.38;;;4.68;;
54452;SDS011;40363;52.270;10.546;2024-01-30T10:37:25;10.63;;;5.40;;
54452;SDS011;40363;52.270;10.546;2024-01-30T10:39:54;10.50;;;5.53;;
54452;SDS011;40363;52.270;10.546;2024-01-30T10:42:27;10.48;;;5.60;;
54452;SDS011;40363;52.270;10.546;2024-01-30T10:44:59;8.13;;;4.80;;
54452;SDS011;40363;52.270;10.546;2024-01-30T10:47:34;10.30;;;5.43;;
54452;SDS011;40363;52.270;10.546;2024-01-30T10:50:02;13.82;;;5.60;;
54452;SDS011;40363;52.270;10.546;2024-01-30T10:52:29;12.00;;;4.97;;
54452;SDS011;40363;52.270;10.546;2024-01-30T10:54:58;8.93;;;5.60;;
54452;SDS011;40363;52.270;10.546;2024-01-30T10:57:25;11.68;;;5.05;;
54452;SDS011;40363;52.270;10.546;2024-01-30T10:59:53;11.68;;;5.90;;
54452;SDS011;40363;52.270;10.546;2024-01-30T11:02:22;10.55;;;5.85;;
54452;SDS011;40363;52.270;10.546;2024-01-30T11:04:54;9.80;;;6.10;;
54452;SDS011;40363;52.270;10.546;2024-01-30T11:07:24;8.02;;;4.97;;
54452;SDS011;40363;52.270;10.546;2024-01-30T11:09:52;8.60;;;4.97;;
54452;SDS011;40363;52.270;10.546;2024-01-30T11:12:22;11.65;;;5.65;;
54452;SDS011;40363;52.270;10.546;2024-01-30T11:14:50;8.02;;;5.47;;
54452;SDS011;40363;52.270;10.546;2024-01-30T11:17:28;12.77;;;6.32;;
54452;SDS011;40363;52.270;10.546;2024-01-30T11:19:56;8.55;;;5.78;;
54452;SDS011;40363;52.270;10.546;2024-01-30T11:22:25;8.52;;;5.05;;
54452;SDS011;40363;52.270;10.546;2024-01-30T11:24:51;7.65;;;4.43;;
54452;SDS011;40363;52.270;10.546;2024-01-30T11:27:18;7.47;;;4.95;;
54452;SDS011;40363;52.270;10.546;2024-01-30T11:29:49;12.25;;;5.32;;
54452;SDS011;40363;52.270;10.546;2024-01-30T11:32:22;8.57;;;4.97;;
54452;SDS011;40363;52.270;10.546;2024-01-30T11:34:49;8.60;;;5.25;;
54452;SDS011;40363;52.270;10.546;2024-01-30T11:37:17;8.18;;;4.70;;
54452;SDS011;40363;52.270;10.546;2024-01-30T11:39:48;9.70;;;4.68;;
54452;SDS011;40363;52.270;10.546;2024-01-30T11:42:14;7.47;;;3.88;;
54452;SDS011;40363;52.270;10.546;2024-01-30T11:44:41;8.15;;;4.57;;
54452;SDS011;40363;52.270;10.546;2024-01-30T11:47:12;8.48;;;4.70;;
54452;SDS011;40363;52.270;10.546;2024-01-30T11:49:39;7.50;;;4.20;;
54452;SDS011;40363;52.270;10.546;2024-01-30T11:52:05;7.30;;;4.68;;
54452;SDS011;40363;52.270;10.546;2024-01-30T11:54:34;9.88;;;5.32;;
54452;SDS011;40363;52.270;10.546;2024-01-30T11:57:00;8.98;;;5.35;;
54452;SDS011;40363;52.270;10.546;2024-01-30T11:59:27;8.63;;;4.80;;
54452;SDS011;40363;52.270;10.546;2024-01-30T12:01:54;9.77;;;4.95;;
54452;SDS011;40363;52.270;10.546;2024-01-30T12:04:20;9.63;;;4.97;;
54452;SDS011;40363;52.270;10.546;2024-01-30T12:06:50;9.95;;;4.65;;
54452;SDS011;40363;52.270;10.546;2024-01-30T12:09:17;8.80;;;5.00;;
54452;SDS011;40363;52.270;10.546;2024-01-30T12:11:45;11.07;;;4.80;;
54452;SDS011;40363;52.270;10.546;2024-01-30T12:14:12;8.70;;;4.97;;
54452;SDS011;40363;52.270;10.546;2024-01-30T12:16:39;6.40;;;4.18;;
54452;SDS011;40363;52.270;10.546;2024-01-30T12:19:06;7.00;;;4.18;;
54452;SDS011;40363;52.270;10.546;2024-01-30T12:21:33;7.80;;;4.20;;
54452;SDS011;40363;52.270;10.546;2024-01-30T12:24:01;12.38;;;4.82;;
54452;SDS011;40363;52.270;10.546;2024-01-30T12:26:28;6.05;;;4.55;;
54452;SDS011;40363;52.270;10.546;2024-01-30T12:28:56;6.35;;;4.00;;
54452;SDS011;40363;52.270;10.546;2024-01-30T12:31:27;8.90;;;4.05;;
54452;SDS011;40363;52.270;10.546;2024-01-30T12:33:54;5.35;;;3.60;;
54452;SDS011;40363;52.270;10.546;2024-01-30T12:36:21;6.22;;;3.92;;
54452;SDS011;40363;52.270;10.546;2024-01-30T12:38:49;12.10;;;4.30;;
54452;SDS011;40363;52.270;10.546;2024-01-30T12:41:16;9.05;;;4.63;;
54452;SDS011;40363;52.270;10.546;2024-01-30T12:43:43;8.00;;;3.58;;
54452;SDS011;40363;52.270;10.546;2024-01-30T12:46:11;5.82;;;3.42;;
54452;SDS011;40363;52.270;10.546;2024-01-30T12:48:38;10.23;;;4.28;;
54452;SDS011;40363;52.270;10.546;2024-01-30T12:51:05;7.63;;;3.47;;
54452;SDS011;40363;52.270;10.546;2024-01-30T12:53:31;7.43;;;3.90;;
54452;SDS011;40363;52.270;10.546;2024-01-30T12:55:58;9.55;;;3.88;;
54452;SDS011;40363;52.270;10.546;2024-01-30T12:58:24;8.13;;;4.10;;
54452;SDS011;40363;52.270;10.546;2024-01-30T13:00:51;10.27;;;3.92;;
54452;SDS011;40363;52.270;10.546;2024-01-30T13:03:20;6.55;;;3.28;;
54452;SDS011;40363;52.270;10.546;2024-01-30T13:05:48;6.75;;;3.83;;
54452;SDS011;40363;52.270;10.546;2024-01-30T13:08:14;9.98;;;4.32;;
54452;SDS011;40363;52.270;10.546;2024-01-30T13:10:41;8.32;;;4.65;;
54452;SDS011;40363;52.270;10.546;2024-01-30T13:13:08;5.95;;;3.58;;
54452;SDS011;40363;52.270;10.546;2024-01-30T13:15:35;8.85;;;4.43;;
54452;SDS011;40363;52.270;10.546;2024-01-30T13:18:01;6.90;;;4.05;;
54452;SDS011;40363;52.270;10.546;2024-01-30T13:20:30;6.53;;;4.32;;
54452;SDS011;40363;52.270;10.546;2024-01-30T13:22:56;7.60;;;4.13;;
54452;SDS011;40363;52.270;10.546;2024-01-30T13:25:23;6.18;;;3.88;;
54452;SDS011;40363;52.270;10.546;2024-01-30T13:27:50;6.97;;;4.30;;
54452;SDS011;40363;52.270;10.546;2024-01-30T13:30:17;7.20;;;3.60;;
54452;SDS011;40363;52.270;10.546;2024-01-30T13:32:44;6.90;;;4.10;;
54452;SDS011;40363;52.270;10.546;2024-01-30T13:35:11;7.68;;;3.70;;
54452;SDS011;40363;52.270;10.546;2024-01-30T13:37:39;10.77;;;4.40;;
54452;SDS011;40363;52.270;10.546;2024-01-30T13:40:07;6.90;;;3.53;;
54452;SDS011;40363;52.270;10.546;2024-01-30T13:42:35;6.60;;;3.97;;
54452;SDS011;40363;52.270;10.546;2024-01-30T13:45:02;9.98;;;4.13;;
54452;SDS011;40363;52.270;10.546;2024-01-30T13:47:29;5.43;;;4.05;;
54452;SDS011;40363;52.270;10.546;2024-01-30T13:49:56;8.75;;;4.45;;
54452;SDS011;40363;52.270;10.546;2024-01-30T13:52:22;9.75;;;4.78;;
54452;SDS011;40363;52.270;10.546;2024-01-30T13:54:50;9.32;;;5.10;;
54452;SDS011;40363;52.270;10.546;2024-01-30T13:57:17;10.85;;;4.45;;
54452;SDS011;40363;52.270;10.546;2024-01-30T13:59:43;6.00;;;3.60;;
54452;SDS011;40363;52.270;10.546;2024-01-30T14:02:10;8.30;;;4.88;;
54452;SDS011;40363;52.270;10.546;2024-01-30T14:04:36;8.52;;;4.47;;
54452;SDS011;40363;52.270;10.546;2024-01-30T14:07:03;6.75;;;4.57;;
54452;SDS011;40363;52.270;10.546;2024-01-30T14:09:31;6.82;;;4.40;;
54452;SDS011;40363;52.270;10.546;2024-01-30T14:11:59;7.75;;;4.20;;
54452;SDS011;40363;52.270;10.546;2024-01-30T14:14:25;6.85;;;3.60;;
54452;SDS011;40363;52.270;10.546;2024-01-30T14:16:52;9.40;;;4.13;;
54452;SDS011;40363;52.270;10.546;2024-01-30T14:19:19;12.13;;;4.63;;
54452;SDS011;40363;52.270;10.546;2024-01-30T14:21:45;12.18;;;4.80;;
54452;SDS011;40363;52.270;10.546;2024-01-30T14:24:21;7.35;;;4.22;;
54452;SDS011;40363;52.270;10.546;2024-01-30T14:26:48;10.65;;;4.88;;
54452;SDS011;40363;52.270;10.546;2024-01-30T14:29:16;7.72;;;4.85;;
54452;SDS011;40363;52.270;10.546;2024-01-30T14:31:42;11.70;;;4.93;;
54452;SDS011;40363;52.270;10.546;2024-01-30T14:34:09;6.95;;;4.30;;
54452;SDS011;40363;52.270;10.546;2024-01-30T14:36:37;9.73;;;4.95;;
54452;SDS011;40363;52.270;10.546;2024-01-30T14:39:04;6.18;;;4.22;;
54452;SDS011;40363;52.270;10.546;2024-01-30T14:41:31;11.48;;;5.38;;
54452;SDS011;40363;52.270;10.546;2024-01-30T14:43:58;6.82;;;4.03;;
54452;SDS011;40363;52.270;10.546;2024-01-30T14:46:26;8.57;;;3.95;;
54452;SDS011;40363;52.270;10.546;2024-01-30T14:48:53;9.90;;;4.95;;
54452;SDS011;40363;52.270;10.546;2024-01-30T14:51:19;9.02;;;5.07;;
54452;SDS011;40363;52.270;10.546;2024-01-30T14:53:46;8.38;;;4.97;;
54452;SDS011;40363;52.270;10.546;2024-01-30T14:56:13;9.20;;;4.78;;
54452;SDS011;40363;52.270;10.546;2024-01-30T14:58:40;10.23;;;4.82;;
54452;SDS011;40363;52.270;10.546;2024-01-30T15:01:08;11.10;;;5.53;;
54452;SDS011;40363;52.270;10.546;2024-01-30T15:03:36;10.70;;;4.63;;
54452;SDS011;40363;52.270;10.546;2024-01-30T15:06:05;7.57;;;4.82;;
54452;SDS011;40363;52.270;10.546;2024-01-30T15:08:32;6.30;;;4.53;;